Time;durP1;ratioP1;P1;durP2;ratioP2;P2;SDS_P1;SDS_P2;PMS_P1;PMS_P2;Temp;Humidity;BMP_temperature;BMP_pressure;BME280_temperature;BME280_humidity;BME280_pressure;Samples;Min_cycle;Max_cycle;Signal;HPM_P1;HPM_P2
2023/10/01 00:02:20;;;;;;;;;;;;;;;;;;5098061;28;19912;-57
2023/10/01 00:04:45;;;;;;;;;;;;;;;;;;5098392;28;19912;-57
2023/10/01 00:07:11;;;;;;;;;;;;;;;;;;5098082;28;19912;-57
2023/10/01 00:09:37;;;;;;;;;;;;;;;;;;5098686;28;19913;-58
2023/10/01 00:12:02;;;;;;;;;;;;;;;;;;5099555;28;19948;-54
2023/10/01 00:14:27;;;;;;;;;;;;;;;;;;5098009;28;19923;-57
2023/10/01 00:16:53;;;;;;;;;;;;;;;;;;5080988;28;19920;-58
2023/10/01 00:19:19;;;;;;;;;;;;;;;;;;5097922;28;19921;-58
2023/10/01 00:21:44;;;;;;;;;;;;;;;;;;5110807;28;19934;-53
2023/10/01 00:24:10;;;;;;;;;;;;;;;;;;5104118;28;19919;-56
2023/10/01 00:26:36;;;;;;;;;;;;;;;;;;5118009;28;19978;-57
2023/10/01 00:29:02;;;;;;;;;;;;;;;;;;5110241;28;19909;-57
2023/10/01 00:31:27;;;;;;;;;;;;;;;;;;5084336;28;19918;-56
2023/10/01 00:33:53;;;;;;;;;;;;;;;;;;5103922;28;19942;-54
2023/10/01 00:36:20;;;;;;;;;;;;;;;;;;5109387;28;19916;-53
2023/10/01 00:38:45;;;;;;;;;;;;;;;;;;5116500;28;19924;-56
2023/10/01 00:41:11;;;;;;;;;;;;;;;;;;5131740;28;19916;-58
2023/10/01 00:43:36;;;;;;;;;;;;;;;;;;5098635;28;19936;-60
2023/10/01 00:46:05;;;;;;;;;;;;;;;;;;5112213;28;19912;-57
2023/10/01 00:48:31;;;;;;;;;;;;;;;;;;5132799;28;19912;-56
2023/10/01 00:51:00;;;;;;;;;;;;;;;;;;5116577;28;19923;-56
2023/10/01 00:53:26;;;;;;;;;;;;;;;;;;5120650;28;19916;-57
2023/10/01 00:55:53;;;;;;;;;;;;;;;;;;5115019;28;19919;-57
2023/10/01 00:58:19;;;;;;;;;;;;;;;;;;5116575;28;19923;-58
2023/10/01 01:00:45;;;;;;;;;;;;;;;;;;5118896;28;19912;-57
2023/10/01 01:03:18;;;;;;;;;;;;;;;;;;5085820;28;19912;-58
2023/10/01 01:08:47;;;;;;;;;;;;;;;;;;5047366;28;19913;-57
2023/10/01 01:11:15;;;;;;;;;;;;;;;;;;5103062;28;19912;-59
2023/10/01 01:13:41;;;;;;;;;;;;;;;;;;5096429;28;19916;-56
2023/10/01 01:16:07;;;;;;;;;;;;;;;;;;5131454;28;19963;-58
2023/10/01 01:18:34;;;;;;;;;;;;;;;;;;5114298;28;19923;-58
2023/10/01 01:21:05;;;;;;;;;;;;;;;;;;5097242;28;19923;-59
2023/10/01 01:23:31;;;;;;;;;;;;;;;;;;5085521;28;19908;-57
2023/10/01 01:25:57;;;;;;;;;;;;;;;;;;5125599;28;19912;-57
2023/10/01 01:28:30;;;;;;;;;;;;;;;;;;5115707;28;19935;-56
2023/10/01 01:30:56;;;;;;;;;;;;;;;;;;5121536;28;19934;-56
2023/10/01 01:33:26;;;;;;;;;;;;;;;;;;5100527;28;19979;-55
2023/10/01 01:35:53;;;;;;;;;;;;;;;;;;5106057;28;19912;-57
2023/10/01 01:38:23;;;;;;;;;;;;;;;;;;5115762;28;19916;-56
2023/10/01 01:40:50;;;;;;;;;;;;;;;;;;5096438;28;19920;-57
2023/10/01 01:43:16;;;;;;;;;;;;;;;;;;5096511;28;19912;-57
2023/10/01 01:45:44;;;;;;;;;;;;;;;;;;5096907;28;19912;-57
2023/10/01 01:48:21;;;;;;;;;;;;;;;;;;5110407;28;19919;-59
2023/10/01 01:50:47;;;;;;;;;;;;;;;;;;5096984;28;19975;-57
2023/10/01 01:53:13;;;;;;;;;;;;;;;;;;5101301;28;19919;-55
2023/10/01 01:55:42;;;;;;;;;;;;;;;;;;5096813;28;19916;-57
2023/10/01 01:58:10;;;;;;;;;;;;;;;;;;5111799;28;19978;-56
2023/10/01 02:00:37;;;;;;;;;;;;;;;;;;5113324;28;19913;-57
2023/10/01 02:03:10;;;;;;;;;;;;;;;;;;5112723;28;19909;-55
2023/10/01 02:05:36;;;;;;;;;;;;;;;;;;5113925;28;19916;-55
2023/10/01 02:08:06;;;;;;;;;;;;;;;;;;5102629;28;19935;-54
2023/10/01 02:10:32;;;;;;;;;;;;;;;;;;5097161;28;19928;-57
2023/10/01 02:12:57;;;;;;;;;;;;;;;;;;5082261;28;19912;-57
2023/10/01 02:15:24;;;;;;;;;;;;;;;;;;5079269;28;19951;-54
2023/10/01 02:17:50;;;;;;;;;;;;;;;;;;5098968;28;19912;-55
2023/10/01 02:20:27;;;;;;;;;;;;;;;;;;5112191;28;19923;-52
2023/10/01 02:22:53;;;;;;;;;;;;;;;;;;5113073;28;19913;-52
2023/10/01 02:25:36;;;;;;;;;;;;;;;;;;5078408;28;19946;-54
2023/10/01 02:28:13;;;;;;;;;;;;;;;;;;5112671;28;19920;-54
2023/10/01 02:30:42;;;;;;;;;;;;;;;;;;5095636;28;19917;-52
2023/10/01 02:33:20;;;;;;;;;;;;;;;;;;5099600;28;19913;-58
2023/10/01 02:35:46;;;;;;;;;;;;;;;;;;5084002;28;19912;-53
2023/10/01 02:38:36;;;;;;;;;;;;;;;;;;5095338;28;19913;-56
2023/10/01 02:40:57;;;;;;;;;;;;;;;;;;5095233;28;19917;-56
2023/10/01 02:43:24;;;;;;;;;;;;;;;;;;5104259;28;19913;-55
2023/10/01 02:45:50;;;;;;;;;;;;;;;;;;5095623;28;19913;-56
2023/10/01 02:48:16;;;;;;;;;;;;;;;;;;5103966;28;19908;-57
2023/10/01 02:50:45;;;;;;;;;;;;;;;;;;5094910;28;19934;-57
2023/10/01 02:53:11;;;;;;;;;;;;;;;;;;5100136;28;19991;-56
2023/10/01 02:55:44;;;;;;;;;;;;;;;;;;5095188;28;19938;-59
2023/10/01 02:58:17;;;;;;;;;;;;;;;;;;5109287;28;19912;-56
2023/10/01 03:00:43;;;;;;;;;;;;;;;;;;5131374;28;19912;-57
2023/10/01 03:03:14;;;;;;;;;;;;;;;;;;5124361;28;19913;-58
2023/10/01 03:05:42;;;;;;;;;;;;;;;;;;5093459;28;19972;-56
2023/10/01 03:08:11;;;;;;;;;;;;;;;;;;5094833;28;19987;-60
2023/10/01 03:10:38;;;;;;;;;;;;;;;;;;5095236;28;19968;-57
2023/10/01 03:13:14;;;;;;;;;;;;;;;;;;5103205;28;19915;-57
2023/10/01 03:15:41;;;;;;;;;;;;;;;;;;5099153;28;19923;-57
2023/10/01 03:18:34;;;;;;;;;;;;;;;;;;5095757;28;19924;-58
2023/10/01 03:25:57;;;;;;;;;;;;;;;;;;5107919;28;19980;-56
2023/10/01 03:28:26;;;;;;;;;;;;;;;;;;5107925;28;19945;-57
2023/10/01 03:31:01;;;;;;;;;;;;;;;;;;5106428;28;19948;-56
2023/10/01 03:33:26;;;;;;;;;;;;;;;;;;5089793;28;19913;-58
2023/10/01 03:35:52;;;;;;;;;;;;;;;;;;5103748;28;19958;-58
2023/10/01 03:38:22;;;;;;;;;;;;;;;;;;5113593;28;19927;-57
2023/10/01 03:41:02;;;;;;;;;;;;;;;;;;5104733;28;19984;-56
2023/10/01 03:43:35;;;;;;;;;;;;;;;;;;5107991;28;19948;-56
2023/10/01 03:46:08;;;;;;;;;;;;;;;;;;5094665;28;19908;-55
2023/10/01 03:48:57;;;;;;;;;;;;;;;;;;5113517;28;19913;-58
2023/10/01 03:51:29;;;;;;;;;;;;;;;;;;5094532;28;19970;-56
2023/10/01 03:53:58;;;;;;;;;;;;;;;;;;5094639;28;19912;-58
2023/10/01 03:56:26;;;;;;;;;;;;;;;;;;5094902;28;19944;-58
2023/10/01 03:58:51;;;;;;;;;;;;;;;;;;5093794;28;19968;-56
2023/10/01 04:01:33;;;;;;;;;;;;;;;;;;5094162;28;20011;-57
2023/10/01 04:04:00;;;;;;;;;;;;;;;;;;5095710;28;19916;-56
2023/10/01 04:06:27;;;;;;;;;;;;;;;;;;5098216;28;19951;-58
2023/10/01 04:08:55;;;;;;;;;;;;;;;;;;5107270;28;19912;-56
2023/10/01 04:11:41;;;;;;;;;;;;;;;;;;5106194;28;19922;-56
2023/10/01 04:14:10;;;;;;;;;;;;;;;;;;5117355;28;19980;-57
2023/10/01 04:16:36;;;;;;;;;;;;;;;;;;5118126;28;19912;-58
2023/10/01 04:19:03;;;;;;;;;;;;;;;;;;5113434;28;19925;-59
2023/10/01 04:21:28;;;;;;;;;;;;;;;;;;5097903;28;19971;-53
2023/10/01 04:23:54;;;;;;;;;;;;;;;;;;5101775;28;19927;-57
2023/10/01 04:26:20;;;;;;;;;;;;;;;;;;5097956;28;19912;-56
2023/10/01 04:28:45;;;;;;;;;;;;;;;;;;5097611;28;19913;-54
2023/10/01 04:31:14;;;;;;;;;;;;;;;;;;5108266;28;19935;-57
2023/10/01 04:33:42;;;;;;;;;;;;;;;;;;5117080;28;19912;-56
2023/10/01 04:36:11;;;;;;;;;;;;;;;;;;5117967;28;19912;-56
2023/10/01 04:38:36;;;;;;;;;;;;;;;;;;5127943;28;19917;-57
2023/10/01 04:41:07;;;;;;;;;;;;;;;;;;5109034;28;19920;-56
2023/10/01 04:43:35;;;;;;;;;;;;;;;;;;5117216;28;19973;-57
2023/10/01 04:46:00;;;;;;;;;;;;;;;;;;5117593;28;19907;-57
2023/10/01 04:48:26;;;;;;;;;;;;;;;;;;5101493;28;19912;-56
2023/10/01 04:50:53;;;;;;;;;;;;;;;;;;5105192;28;19913;-58
2023/10/01 04:53:20;;;;;;;;;;;;;;;;;;5098106;28;19927;-55
2023/10/01 04:55:57;;;;;;;;;;;;;;;;;;5117142;28;19912;-58
2023/10/01 04:58:23;;;;;;;;;;;;;;;;;;5084204;28;19971;-49
2023/10/01 05:00:49;;;;;;;;;;;;;;;;;;5097308;28;19924;-54
2023/10/01 05:03:15;;;;;;;;;;;;;;;;;;5097345;28;19987;-51
2023/10/01 05:05:42;;;;;;;;;;;;;;;;;;5102977;28;19913;-56
2023/10/01 05:08:08;;;;;;;;;;;;;;;;;;5097119;28;19908;-54
2023/10/01 05:10:51;;;;;;;;;;;;;;;;;;5097293;28;19919;-57
2023/10/01 05:13:19;;;;;;;;;;;;;;;;;;5097068;28;19913;-57
2023/10/01 05:15:47;;;;;;;;;;;;;;;;;;5110247;28;19942;-54
2023/10/01 05:18:12;;;;;;;;;;;;;;;;;;5096738;28;19912;-56
2023/10/01 05:20:38;;;;;;;;;;;;;;;;;;5102369;28;19919;-57
2023/10/01 05:23:03;;;;;;;;;;;;;;;;;;5116623;28;19933;-59
2023/10/01 05:25:31;;;;;;;;;;;;;;;;;;5115929;28;19916;-57
2023/10/01 05:27:59;;;;;;;;;;;;;;;;;;5116651;28;19912;-56
2023/10/01 05:30:38;;;;;;;;;;;;;;;;;;5115894;28;19912;-53
2023/10/01 05:33:06;;;;;;;;;;;;;;;;;;5116169;28;19951;-56
2023/10/01 05:35:33;;;;;;;;;;;;;;;;;;5115852;28;19915;-56
2023/10/01 05:38:04;;;;;;;;;;;;;;;;;;5115675;28;19969;-57
2023/10/01 05:40:30;;;;;;;;;;;;;;;;;;5132398;28;19916;-55
2023/10/01 05:43:12;;;;;;;;;;;;;;;;;;5115984;28;19939;-55
2023/10/01 05:45:39;;;;;;;;;;;;;;;;;;5116220;28;19993;-58
2023/10/01 05:48:10;;;;;;;;;;;;;;;;;;5115829;28;19919;-57
2023/10/01 05:50:36;;;;;;;;;;;;;;;;;;5111067;28;19915;-56
2023/10/01 05:53:01;;;;;;;;;;;;;;;;;;5115393;28;19948;-58
2023/10/01 05:55:28;;;;;;;;;;;;;;;;;;5104956;28;19913;-54
2023/10/01 05:57:54;;;;;;;;;;;;;;;;;;5112992;28;19962;-56
2023/10/01 06:00:27;;;;;;;;;;;;;;;;;;5115555;28;19923;-56
2023/10/01 06:03:01;;;;;;;;;;;;;;;;;;5115121;28;19912;-56
2023/10/01 06:05:33;;;;;;;;;;;;;;;;;;5115476;28;19941;-57
2023/10/01 06:07:58;;;;;;;;;;;;;;;;;;5103151;28;19971;-56
2023/10/01 06:10:26;;;;;;;;;;;;;;;;;;5114641;28;19919;-55
2023/10/01 06:12:52;;;;;;;;;;;;;;;;;;5115422;28;19919;-56
2023/10/01 06:15:20;;;;;;;;;;;;;;;;;;5113641;28;20063;-58
2023/10/01 06:17:46;;;;;;;;;;;;;;;;;;5115035;28;19951;-58
2023/10/01 06:20:23;;;;;;;;;;;;;;;;;;5114339;28;19937;-55
2023/10/01 06:22:49;;;;;;;;;;;;;;;;;;5104474;28;19916;-58
2023/10/01 06:25:15;;;;;;;;;;;;;;;;;;5113236;28;19919;-58
2023/10/01 06:27:40;;;;;;;;;;;;;;;;;;5094600;28;19915;-56
2023/10/01 06:30:07;;;;;;;;;;;;;;;;;;5095501;28;20021;-57
2023/10/01 06:32:33;;;;;;;;;;;;;;;;;;5095689;28;19912;-58
2023/10/01 06:35:02;;;;;;;;;;;;;;;;;;5109832;28;19912;-57
2023/10/01 06:37:45;;;;;;;;;;;;;;;;;;5115592;28;19966;-58
2023/10/01 06:40:29;;;;;;;;;;;;;;;;;;5114074;28;19943;-56
2023/10/01 06:42:54;;;;;;;;;;;;;;;;;;5097198;28;19938;-59
2023/10/01 06:45:38;;;;;;;;;;;;;;;;;;5115078;28;19912;-57
2023/10/01 06:48:08;;;;;;;;;;;;;;;;;;5114733;28;19995;-58
2023/10/01 06:50:35;;;;;;;;;;;;;;;;;;5115556;28;19930;-57
2023/10/01 06:53:00;;;;;;;;;;;;;;;;;;5114093;28;19923;-57
2023/10/01 06:55:25;;;;;;;;;;;;;;;;;;5114480;28;19912;-57
2023/10/01 06:57:51;;;;;;;;;;;;;;;;;;5114246;28;19912;-57
2023/10/01 07:00:21;;;;;;;;;;;;;;;;;;5114911;28;19987;-57
2023/10/01 07:02:49;;;;;;;;;;;;;;;;;;5114243;28;19913;-56
2023/10/01 07:05:20;;;;;;;;;;;;;;;;;;5114568;28;19912;-55
2023/10/01 07:07:45;;;;;;;;;;;;;;;;;;5109292;28;19908;-57
2023/10/01 07:10:11;;;;;;;;;;;;;;;;;;5104770;28;19919;-57
2023/10/01 07:12:37;;;;;;;;;;;;;;;;;;5113539;28;19912;-56
2023/10/01 07:15:03;;;;;;;;;;;;;;;;;;5114394;28;19920;-56
2023/10/01 07:17:31;;;;;;;;;;;;;;;;;;5113588;28;19936;-55
2023/10/01 07:19:59;;;;;;;;;;;;;;;;;;5097320;28;19927;-56
2023/10/01 07:22:25;;;;;;;;;;;;;;;;;;5102584;28;19919;-57
2023/10/01 07:24:50;;;;;;;;;;;;;;;;;;5114885;28;19912;-53
2023/10/01 07:27:17;;;;;;;;;;;;;;;;;;5103273;28;19908;-51
2023/10/01 07:29:43;;;;;;;;;;;;;;;;;;5106645;28;19919;-56
2023/10/01 07:32:08;;;;;;;;;;;;;;;;;;5108597;28;19916;-57
2023/10/01 07:34:35;;;;;;;;;;;;;;;;;;5102957;28;19996;-51
2023/10/01 07:37:00;;;;;;;;;;;;;;;;;;5098525;28;19912;-53
2023/10/01 07:39:25;;;;;;;;;;;;;;;;;;5103519;28;19917;-53
2023/10/01 07:41:51;;;;;;;;;;;;;;;;;;5095446;28;19979;-52
2023/10/01 07:44:18;;;;;;;;;;;;;;;;;;5096076;28;19923;-53
2023/10/01 07:46:43;;;;;;;;;;;;;;;;;;5109437;28;19947;-53
2023/10/01 07:49:09;;;;;;;;;;;;;;;;;;5112468;28;19920;-55
2023/10/01 07:51:44;;;;;;;;;;;;;;;;;;5108748;28;19934;-57
2023/10/01 07:54:10;;;;;;;;;;;;;;;;;;5105198;28;19912;-58
2023/10/01 07:56:36;;;;;;;;;;;;;;;;;;5101981;28;19919;-55
2023/10/01 07:59:17;;;;;;;;;;;;;;;;;;5098072;28;19942;-55
2023/10/01 08:01:42;;;;;;;;;;;;;;;;;;5104651;28;19912;-56
2023/10/01 08:04:08;;;;;;;;;;;;;;;;;;5092709;28;19913;-53
2023/10/01 08:06:43;;;;;;;;;;;;;;;;;;5112243;28;19950;-58
2023/10/01 08:09:11;;;;;;;;;;;;;;;;;;5096530;28;19978;-55
2023/10/01 08:11:58;;;;;;;;;;;;;;;;;;5107755;28;19913;-53
2023/10/01 08:14:26;;;;;;;;;;;;;;;;;;5110071;28;19975;-54
2023/10/01 08:16:53;;;;;;;;;;;;;;;;;;5097311;28;19912;-57
2023/10/01 08:19:20;;;;;;;;;;;;;;;;;;5097917;28;19916;-56
2023/10/01 08:21:48;;;;;;;;;;;;;;;;;;5110802;28;19908;-57
2023/10/01 08:24:18;;;;;;;;;;;;;;;;;;5110549;28;19940;-56
2023/10/01 08:26:43;;;;;;;;;;;;;;;;;;5097959;28;19915;-57
2023/10/01 08:29:09;;;;;;;;;;;;;;;;;;5117596;28;19920;-57
2023/10/01 08:32:08;;;;;;;;;;;;;;;;;;5116821;28;19913;-59
2023/10/01 08:34:29;;;;;;;;;;;;;;;;;;5113119;28;19912;-57
2023/10/01 08:36:57;;;;;;;;;;;;;;;;;;5101998;28;19925;-57
2023/10/01 08:39:35;;;;;;;;;;;;;;;;;;5115794;28;19927;-58
2023/10/01 08:42:08;;;;;;;;;;;;;;;;;;5102131;28;19911;-57
2023/10/01 08:44:34;;;;;;;;;;;;;;;;;;5113221;28;19912;-57
2023/10/01 08:46:59;;;;;;;;;;;;;;;;;;5113619;28;19955;-57
2023/10/01 08:49:30;;;;;;;;;;;;;;;;;;5111426;28;19912;-56
2023/10/01 08:52:18;;;;;;;;;;;;;;;;;;5095351;28;19935;-55
2023/10/01 08:54:43;;;;;;;;;;;;;;;;;;5099968;28;19913;-58
2023/10/01 08:57:15;;;;;;;;;;;;;;;;;;5102142;28;19963;-58
2023/10/01 08:59:41;;;;;;;;;;;;;;;;;;5103168;28;19947;-58
2023/10/01 09:02:15;;;;;;;;;;;;;;;;;;5108143;28;19912;-58
2023/10/01 09:04:48;;;;;;;;;;;;;;;;;;5100878;28;19947;-58
2023/10/01 09:07:20;;;;;;;;;;;;;;;;;;5101094;28;19995;-56
2023/10/01 09:09:51;;;;;;;;;;;;;;;;;;5100443;28;19923;-56
2023/10/01 09:12:18;;;;;;;;;;;;;;;;;;5100091;28;19916;-58
2023/10/01 09:14:46;;;;;;;;;;;;;;;;;;5099839;28;19909;-58
2023/10/01 09:17:12;;;;;;;;;;;;;;;;;;5101715;28;19923;-57
2023/10/01 09:19:42;;;;;;;;;;;;;;;;;;5107353;28;19917;-57
2023/10/01 09:22:08;;;;;;;;;;;;;;;;;;5100583;28;19931;-58
2023/10/01 09:24:42;;;;;;;;;;;;;;;;;;5096746;28;19913;-58
2023/10/01 09:27:21;;;;;;;;;;;;;;;;;;5106440;28;19930;-58
2023/10/01 09:29:48;;;;;;;;;;;;;;;;;;5096917;28;19913;-60
2023/10/01 09:32:14;;;;;;;;;;;;;;;;;;5107033;28;19912;-57
2023/10/01 09:34:53;;;;;;;;;;;;;;;;;;5094357;28;19916;-58
2023/10/01 09:37:33;;;;;;;;;;;;;;;;;;5104733;28;19915;-59
2023/10/01 09:40:03;;;;;;;;;;;;;;;;;;5110943;28;19930;-58
2023/10/01 09:42:30;;;;;;;;;;;;;;;;;;5113919;28;19920;-60
2023/10/01 09:45:09;;;;;;;;;;;;;;;;;;5108512;28;19912;-57
2023/10/01 09:47:35;;;;;;;;;;;;;;;;;;5112780;28;19935;-59
2023/10/01 09:50:00;;;;;;;;;;;;;;;;;;5101956;28;19912;-58
2023/10/01 09:52:30;;;;;;;;;;;;;;;;;;5112099;28;19912;-59
2023/10/01 09:54:55;;;;;;;;;;;;;;;;;;5113681;28;19934;-60
2023/10/01 09:57:24;;;;;;;;;;;;;;;;;;5107463;28;19917;-59
2023/10/01 09:59:49;;;;;;;;;;;;;;;;;;5085743;28;19928;-59
2023/10/01 10:02:27;;;;;;;;;;;;;;;;;;5108079;28;20006;-59
2023/10/01 10:04:52;;;;;;;;;;;;;;;;;;5089483;28;19912;-59
2023/10/01 10:07:24;;;;;;;;;;;;;;;;;;5109335;28;19919;-59
2023/10/01 10:09:54;;;;;;;;;;;;;;;;;;5115649;28;19919;-59
2023/10/01 10:12:21;;;;;;;;;;;;;;;;;;5101890;28;19924;-59
2023/10/01 10:14:56;;;;;;;;;;;;;;;;;;5115599;28;19984;-60
2023/10/01 10:17:25;;;;;;;;;;;;;;;;;;5104911;28;19916;-60
2023/10/01 10:19:51;;;;;;;;;;;;;;;;;;5115474;28;19916;-60
2023/10/01 10:22:16;;;;;;;;;;;;;;;;;;5115110;28;19966;-57
2023/10/01 10:24:50;;;;;;;;;;;;;;;;;;5115753;28;19919;-59
2023/10/01 10:27:17;;;;;;;;;;;;;;;;;;5107322;28;19913;-59
2023/10/01 10:29:42;;;;;;;;;;;;;;;;;;5088076;28;19919;-59
2023/10/01 10:32:10;;;;;;;;;;;;;;;;;;5088741;28;19980;-61
2023/10/01 10:34:36;;;;;;;;;;;;;;;;;;5088739;28;19918;-59
2023/10/01 10:37:06;;;;;;;;;;;;;;;;;;5102706;28;19916;-60
2023/10/01 10:39:39;;;;;;;;;;;;;;;;;;5093345;28;19971;-59
2023/10/01 10:42:05;;;;;;;;;;;;;;;;;;5092589;28;19912;-60
2023/10/01 10:44:30;;;;;;;;;;;;;;;;;;5095115;28;19918;-59
2023/10/01 10:46:59;;;;;;;;;;;;;;;;;;5109009;28;19982;-60
2023/10/01 10:49:25;;;;;;;;;;;;;;;;;;5103672;28;19912;-59
2023/10/01 10:51:52;;;;;;;;;;;;;;;;;;5109786;28;19919;-59
2023/10/01 10:54:23;;;;;;;;;;;;;;;;;;5103683;28;19909;-59
2023/10/01 10:56:52;;;;;;;;;;;;;;;;;;5107444;28;19935;-60
2023/10/01 10:59:19;;;;;;;;;;;;;;;;;;5104607;28;19921;-59
2023/10/01 11:01:46;;;;;;;;;;;;;;;;;;5108814;28;19977;-59
2023/10/01 11:04:12;;;;;;;;;;;;;;;;;;5104517;28;19909;-59
2023/10/01 11:06:44;;;;;;;;;;;;;;;;;;5109461;28;19908;-59
2023/10/01 11:09:22;;;;;;;;;;;;;;;;;;5105982;28;19924;-59
2023/10/01 11:11:47;;;;;;;;;;;;;;;;;;5099623;28;19908;-60
2023/10/01 11:14:16;;;;;;;;;;;;;;;;;;5104526;28;19912;-59
2023/10/01 11:16:44;;;;;;;;;;;;;;;;;;5106991;28;19920;-61
2023/10/01 11:19:12;;;;;;;;;;;;;;;;;;5108768;28;19920;-59
2023/10/01 11:21:37;;;;;;;;;;;;;;;;;;5112495;28;19912;-60
2023/10/01 11:24:03;;;;;;;;;;;;;;;;;;5117085;28;19920;-59
2023/10/01 11:26:29;;;;;;;;;;;;;;;;;;5118076;28;20231;-60
2023/10/01 11:29:00;;;;;;;;;;;;;;;;;;5116252;28;19912;-60
2023/10/01 11:31:26;;;;;;;;;;;;;;;;;;5114840;28;19946;-59
2023/10/01 11:33:57;;;;;;;;;;;;;;;;;;5117362;28;19916;-60
2023/10/01 11:36:23;;;;;;;;;;;;;;;;;;5117598;28;19942;-60
2023/10/01 11:38:50;;;;;;;;;;;;;;;;;;5109516;28;19924;-61
2023/10/01 11:41:18;;;;;;;;;;;;;;;;;;5116742;28;19916;-59
2023/10/01 11:43:45;;;;;;;;;;;;;;;;;;5118375;28;19908;-60
2023/10/01 11:46:18;;;;;;;;;;;;;;;;;;5116391;28;19912;-60
2023/10/01 11:48:56;;;;;;;;;;;;;;;;;;5101369;28;19912;-61
2023/10/01 11:51:26;;;;;;;;;;;;;;;;;;5115478;28;19927;-59
2023/10/01 11:53:51;;;;;;;;;;;;;;;;;;5091312;28;19952;-59
2023/10/01 11:56:18;;;;;;;;;;;;;;;;;;5116331;28;19919;-60
2023/10/01 11:58:44;;;;;;;;;;;;;;;;;;5117214;28;19927;-60
2023/10/01 12:01:09;;;;;;;;;;;;;;;;;;5117392;28;19912;-59
2023/10/01 12:03:35;;;;;;;;;;;;;;;;;;5117624;28;20022;-60
2023/10/01 12:06:01;;;;;;;;;;;;;;;;;;5117010;28;19916;-59
2023/10/01 12:08:35;;;;;;;;;;;;;;;;;;5104026;28;19917;-60
2023/10/01 12:11:26;;;;;;;;;;;;;;;;;;5111375;28;19923;-59
2023/10/01 12:14:04;;;;;;;;;;;;;;;;;;5098654;28;19908;-60
2023/10/01 12:16:29;;;;;;;;;;;;;;;;;;5109533;28;19916;-60
2023/10/01 12:19:17;;;;;;;;;;;;;;;;;;5105607;28;19916;-60
2023/10/01 12:21:41;;;;;;;;;;;;;;;;;;5105543;28;19972;-60
2023/10/01 12:24:12;;;;;;;;;;;;;;;;;;5096749;28;19962;-60
2023/10/01 12:26:38;;;;;;;;;;;;;;;;;;5098000;28;19919;-59
2023/10/01 12:29:13;;;;;;;;;;;;;;;;;;5104022;28;19913;-60
2023/10/01 12:31:40;;;;;;;;;;;;;;;;;;5117260;28;19912;-60
2023/10/01 12:34:06;;;;;;;;;;;;;;;;;;5117480;28;19916;-61
2023/10/01 12:36:31;;;;;;;;;;;;;;;;;;5116809;28;19920;-60
2023/10/01 12:41:47;;;;;;;;;;;;;;;;;;5116864;28;19920;-60
2023/10/01 12:44:25;;;;;;;;;;;;;;;;;;5108698;28;19940;-58
2023/10/01 12:46:54;;;;;;;;;;;;;;;;;;5110424;28;19939;-61
2023/10/01 12:49:20;;;;;;;;;;;;;;;;;;5104622;28;19916;-60
2023/10/01 12:51:48;;;;;;;;;;;;;;;;;;5090684;28;19912;-60
2023/10/01 12:54:18;;;;;;;;;;;;;;;;;;5111156;28;19971;-60
2023/10/01 12:56:48;;;;;;;;;;;;;;;;;;5109966;28;19917;-60
2023/10/01 12:59:19;;;;;;;;;;;;;;;;;;5102327;28;19912;-61
2023/10/01 13:01:50;;;;;;;;;;;;;;;;;;5097245;28;19916;-60
2023/10/01 13:04:22;;;;;;;;;;;;;;;;;;5097096;28;19912;-61
2023/10/01 13:06:47;;;;;;;;;;;;;;;;;;5096888;28;19912;-59
2023/10/01 13:09:53;;;;;;;;;;;;;;;;;;5106011;28;19912;-60
2023/10/01 13:12:13;;;;;;;;;;;;;;;;;;5095642;28;19912;-60
2023/10/01 13:14:38;;;;;;;;;;;;;;;;;;5096801;28;19940;-60
2023/10/01 13:17:04;;;;;;;;;;;;;;;;;;5103567;28;19920;-59
2023/10/01 13:19:36;;;;;;;;;;;;;;;;;;5100346;28;19996;-60
2023/10/01 13:22:04;;;;;;;;;;;;;;;;;;5126779;28;19912;-62
2023/10/01 13:24:29;;;;;;;;;;;;;;;;;;5105692;28;19923;-60
2023/10/01 13:27:10;;;;;;;;;;;;;;;;;;5115067;28;19912;-59
2023/10/01 13:29:35;;;;;;;;;;;;;;;;;;5115657;28;19908;-60
2023/10/01 13:32:03;;;;;;;;;;;;;;;;;;5114319;28;19919;-59
2023/10/01 13:37:26;;;;;;;;;;;;;;;;;;5094421;28;19913;-59
2023/10/01 13:40:10;;;;;;;;;;;;;;;;;;5092815;28;19916;-59
2023/10/01 14:09:58;;;;;;;;;;;;;;;;;;5113806;28;19912;-59
2023/10/01 14:12:42;;;;;;;;;;;;;;;;;;5111920;28;19919;-60
2023/10/01 14:15:29;;;;;;;;;;;;;;;;;;5101187;28;19912;-59
2023/10/01 14:17:53;;;;;;;;;;;;;;;;;;5093948;28;19912;-59
2023/10/01 14:20:37;;;;;;;;;;;;;;;;;;5098585;28;19920;-60
2023/10/01 14:23:03;;;;;;;;;;;;;;;;;;5105759;28;19912;-59
2023/10/01 14:25:30;;;;;;;;;;;;;;;;;;5114245;28;20177;-59
2023/10/01 14:27:59;;;;;;;;;;;;;;;;;;5114891;28;19912;-60
2023/10/01 14:30:24;;;;;;;;;;;;;;;;;;5099478;28;19928;-59
2023/10/01 14:32:54;;;;;;;;;;;;;;;;;;5114846;28;19998;-59
2023/10/01 14:35:20;;;;;;;;;;;;;;;;;;5111957;28;19916;-59
2023/10/01 14:37:55;;;;;;;;;;;;;;;;;;5115197;28;19912;-59
2023/10/01 14:40:20;;;;;;;;;;;;;;;;;;5101146;28;19938;-59
2023/10/01 14:42:46;;;;;;;;;;;;;;;;;;5089912;28;19912;-60
2023/10/01 14:45:11;;;;;;;;;;;;;;;;;;5089419;28;19912;-59
2023/10/01 14:47:39;;;;;;;;;;;;;;;;;;5086587;28;19980;-58
2023/10/01 14:50:04;;;;;;;;;;;;;;;;;;5102462;28;19943;-60
2023/10/01 14:52:30;;;;;;;;;;;;;;;;;;5098876;28;19928;-59
2023/10/01 14:55:01;;;;;;;;;;;;;;;;;;5102760;28;19912;-59
2023/10/01 14:57:26;;;;;;;;;;;;;;;;;;5098328;28;19923;-59
2023/10/01 14:59:56;;;;;;;;;;;;;;;;;;5101768;28;19916;-58
2023/10/01 15:02:21;;;;;;;;;;;;;;;;;;5089797;28;19924;-60
2023/10/01 15:04:47;;;;;;;;;;;;;;;;;;5108601;28;19912;-59
2023/10/01 15:07:16;;;;;;;;;;;;;;;;;;5113521;28;19912;-60
2023/10/01 15:09:42;;;;;;;;;;;;;;;;;;5100536;28;19912;-58
2023/10/01 15:12:09;;;;;;;;;;;;;;;;;;5109231;28;19912;-59
2023/10/01 15:14:36;;;;;;;;;;;;;;;;;;5120919;28;20011;-60
2023/10/01 15:17:01;;;;;;;;;;;;;;;;;;5093524;28;19908;-58
2023/10/01 15:19:27;;;;;;;;;;;;;;;;;;5096597;28;19917;-60
2023/10/01 15:21:52;;;;;;;;;;;;;;;;;;5100957;28;19924;-59
2023/10/01 15:24:20;;;;;;;;;;;;;;;;;;5114509;28;19916;-60
2023/10/01 15:26:46;;;;;;;;;;;;;;;;;;5114183;28;19908;-60
2023/10/01 15:29:14;;;;;;;;;;;;;;;;;;5114509;28;19934;-60
2023/10/01 15:31:42;;;;;;;;;;;;;;;;;;5114638;28;19952;-60
2023/10/01 15:34:15;;;;;;;;;;;;;;;;;;5110024;28;19919;-59
2023/10/01 15:36:41;;;;;;;;;;;;;;;;;;5110449;28;19979;-61
2023/10/01 15:39:14;;;;;;;;;;;;;;;;;;5109068;28;19916;-59
2023/10/01 15:41:41;;;;;;;;;;;;;;;;;;5113749;28;19991;-59
2023/10/01 15:44:08;;;;;;;;;;;;;;;;;;5127180;28;19912;-59
2023/10/01 15:46:40;;;;;;;;;;;;;;;;;;5111065;28;19927;-59
2023/10/01 15:49:18;;;;;;;;;;;;;;;;;;5114329;28;19912;-58
2023/10/01 15:51:44;;;;;;;;;;;;;;;;;;5107617;28;19920;-60
2023/10/01 15:54:22;;;;;;;;;;;;;;;;;;5104416;28;19951;-60
2023/10/01 15:56:48;;;;;;;;;;;;;;;;;;5090397;28;19912;-58
2023/10/01 15:59:19;;;;;;;;;;;;;;;;;;5115681;28;19923;-59
2023/10/01 16:01:48;;;;;;;;;;;;;;;;;;5109664;28;19913;-59
2023/10/01 16:04:14;;;;;;;;;;;;;;;;;;5098041;28;19920;-58
2023/10/01 16:06:40;;;;;;;;;;;;;;;;;;5081191;28;19916;-58
2023/10/01 16:09:06;;;;;;;;;;;;;;;;;;5098862;28;19912;-60
2023/10/01 16:11:33;;;;;;;;;;;;;;;;;;5109421;28;19923;-59
2023/10/01 16:14:04;;;;;;;;;;;;;;;;;;5100343;28;19916;-59
2023/10/01 16:16:29;;;;;;;;;;;;;;;;;;5097767;28;19917;-59
2023/10/01 16:18:55;;;;;;;;;;;;;;;;;;5099589;28;19916;-57
2023/10/01 16:21:21;;;;;;;;;;;;;;;;;;5107618;28;19927;-57
2023/10/01 16:23:52;;;;;;;;;;;;;;;;;;5098290;28;19920;-59
2023/10/01 16:26:21;;;;;;;;;;;;;;;;;;5097808;28;19913;-58
2023/10/01 16:28:47;;;;;;;;;;;;;;;;;;5098387;28;19970;-59
2023/10/01 16:31:15;;;;;;;;;;;;;;;;;;5112666;28;19912;-61
2023/10/01 16:33:41;;;;;;;;;;;;;;;;;;5100850;28;19922;-59
2023/10/01 16:36:07;;;;;;;;;;;;;;;;;;5098619;28;19952;-59
2023/10/01 16:38:32;;;;;;;;;;;;;;;;;;5098959;28;19919;-58
2023/10/01 16:40:58;;;;;;;;;;;;;;;;;;5105370;28;19920;-59
2023/10/01 16:43:32;;;;;;;;;;;;;;;;;;5100649;28;19919;-60
2023/10/01 16:45:57;;;;;;;;;;;;;;;;;;5098098;28;19923;-59
2023/10/01 16:48:29;;;;;;;;;;;;;;;;;;5098732;28;19947;-59
2023/10/01 16:51:02;;;;;;;;;;;;;;;;;;5110207;28;19922;-59
2023/10/01 16:53:28;;;;;;;;;;;;;;;;;;5085715;28;19912;-58
2023/10/01 16:55:53;;;;;;;;;;;;;;;;;;5098520;28;19972;-59
2023/10/01 16:58:19;;;;;;;;;;;;;;;;;;5097695;28;19916;-59
2023/10/01 17:00:44;;;;;;;;;;;;;;;;;;5106805;28;19924;-59
2023/10/01 17:03:10;;;;;;;;;;;;;;;;;;5097523;28;19924;-59
2023/10/01 17:05:38;;;;;;;;;;;;;;;;;;5097117;28;19912;-60
2023/10/01 17:08:04;;;;;;;;;;;;;;;;;;5096987;28;19934;-59
2023/10/01 17:10:29;;;;;;;;;;;;;;;;;;5103209;28;20755;-59
2023/10/01 17:12:54;;;;;;;;;;;;;;;;;;5104248;28;19980;-60
2023/10/01 17:15:29;;;;;;;;;;;;;;;;;;5113282;28;19912;-60
2023/10/01 17:17:55;;;;;;;;;;;;;;;;;;5117038;28;19912;-61
2023/10/01 17:20:20;;;;;;;;;;;;;;;;;;5105195;28;19920;-59
2023/10/01 17:22:46;;;;;;;;;;;;;;;;;;5104706;28;19919;-60
2023/10/01 17:25:14;;;;;;;;;;;;;;;;;;5115896;28;19912;-58
2023/10/01 17:27:39;;;;;;;;;;;;;;;;;;5116719;28;19939;-59
2023/10/01 17:30:18;;;;;;;;;;;;;;;;;;5115143;28;19916;-58
2023/10/01 17:32:43;;;;;;;;;;;;;;;;;;5096645;28;19943;-60
2023/10/01 17:35:17;;;;;;;;;;;;;;;;;;5097334;28;19927;-59
2023/10/01 17:37:45;;;;;;;;;;;;;;;;;;5084055;28;19916;-60
2023/10/01 17:40:17;;;;;;;;;;;;;;;;;;5095982;28;19955;-60